createdAt,value
2018-03-24T00:00:32.473Z,152.60
2018-03-24T00:03:01.689Z,138.60
2018-03-24T00:05:31.139Z,162.60
2018-03-24T00:08:00.037Z,159.40
2018-03-24T00:10:29.367Z,147.20
2018-03-24T00:12:58.682Z,152.20
2018-03-24T00:15:28.369Z,146.20
2018-03-24T00:17:57.522Z,151.60
2018-03-24T00:20:26.921Z,148.20
2018-03-24T00:22:56.277Z,135.60
2018-03-24T00:25:25.442Z,155.60
2018-03-24T00:27:54.947Z,153.20
2018-03-24T00:30:24.378Z,159.00
2018-03-24T00:32:53.565Z,157.60
2018-03-24T00:35:23.024Z,161.00
2018-03-24T00:37:52.616Z,153.80
2018-03-24T00:40:21.592Z,147.80
2018-03-24T00:42:50.692Z,157.00
2018-03-24T00:45:19.988Z,170.40
2018-03-24T00:47:49.404Z,164.20
2018-03-24T00:50:18.688Z,167.80
2018-03-24T00:52:47.880Z,160.40
2018-03-24T00:55:17.240Z,188.00
2018-03-24T00:57:46.591Z,174.60
2018-03-24T01:00:15.993Z,172.80
2018-03-24T01:02:45.111Z,158.60
2018-03-24T01:05:14.749Z,200.40
2018-03-24T01:07:44.051Z,182.60
2018-03-24T01:10:13.356Z,192.00
2018-03-24T01:12:42.490Z,207.20
2018-03-24T01:15:11.860Z,209.00
2018-03-24T01:17:41.187Z,203.80
2018-03-24T01:20:10.709Z,177.60
2018-03-24T01:22:39.645Z,194.40
2018-03-24T01:25:08.833Z,201.00
2018-03-24T01:27:38.202Z,213.60
2018-03-24T01:30:07.489Z,200.60
2018-03-24T01:32:36.686Z,201.00
2018-03-24T01:35:06.319Z,210.60
2018-03-24T01:37:35.595Z,223.50
2018-03-24T01:40:04.852Z,230.75
2018-03-24T01:42:34.306Z,223.60
2018-03-24T01:45:03.443Z,189.60
2018-03-24T01:47:32.997Z,177.60
2018-03-24T01:50:02.230Z,180.40
2018-03-24T01:52:31.647Z,166.00
2018-03-24T01:55:01.029Z,173.80
2018-03-24T01:57:30.593Z,179.00
2018-03-24T01:59:59.931Z,146.60
2018-03-24T02:02:29.051Z,154.20
2018-03-24T02:04:58.329Z,153.40
2018-03-24T02:07:27.802Z,164.20
2018-03-24T02:09:57.006Z,150.60
2018-03-24T02:12:26.479Z,154.00
2018-03-24T02:14:55.614Z,147.40
2018-03-24T02:17:24.819Z,149.20
2018-03-24T02:19:54.334Z,154.20
2018-03-24T02:22:23.496Z,133.40
2018-03-24T02:24:56.614Z,141.40
2018-03-24T02:27:25.783Z,132.40
2018-03-24T02:29:55.933Z,131.80
2018-03-24T02:32:25.033Z,141.80
2018-03-24T02:34:54.448Z,130.20
2018-03-24T02:37:23.624Z,120.20
2018-03-24T02:39:52.835Z,127.80
2018-03-24T02:42:22.337Z,132.40
2018-03-24T02:44:51.625Z,133.00
2018-03-24T02:47:20.977Z,124.60
2018-03-24T02:49:50.414Z,120.20
2018-03-24T02:52:19.693Z,123.80
2018-03-24T02:54:48.871Z,128.40
2018-03-24T02:57:18.120Z,118.00
2018-03-24T02:59:47.477Z,123.40
2018-03-24T03:02:17.039Z,107.80
2018-03-24T03:04:46.413Z,97.20
2018-03-24T03:07:15.750Z,103.20
2018-03-24T03:09:44.980Z,92.40
2018-03-24T03:12:14.589Z,84.40
2018-03-24T03:14:43.740Z,87.80
2018-03-24T03:17:13.040Z,80.40
2018-03-24T03:19:42.566Z,83.40
2018-03-24T03:22:12.268Z,74.60
2018-03-24T03:24:41.859Z,80.00
2018-03-24T03:27:11.230Z,79.40
2018-03-24T03:29:40.828Z,78.60
2018-03-24T03:32:13.902Z,71.60
2018-03-24T03:34:43.093Z,73.60
2018-03-24T03:37:12.628Z,74.00
2018-03-24T03:39:41.876Z,73.20
2018-03-24T03:42:11.478Z,74.60
2018-03-24T03:44:40.430Z,76.20
2018-03-24T03:47:09.788Z,69.40
2018-03-24T03:49:39.073Z,68.80
2018-03-24T03:52:08.583Z,67.80
2018-03-24T03:54:37.812Z,69.60
2018-03-24T03:57:07.042Z,65.60
2018-03-24T03:59:36.240Z,69.60
2018-03-24T04:02:05.715Z,65.00
2018-03-24T04:04:34.716Z,72.60
2018-03-24T04:07:04.128Z,66.20
2018-03-24T04:09:33.445Z,65.80
2018-03-24T04:12:02.737Z,61.60
2018-03-24T04:14:31.995Z,63.20
2018-03-24T04:17:01.242Z,67.40
2018-03-24T04:19:30.699Z,60.50
2018-03-24T04:21:59.831Z,63.60
2018-03-24T04:24:28.994Z,64.60
2018-03-24T04:26:58.553Z,59.20
2018-03-24T04:29:27.554Z,60.40
2018-03-24T04:31:57.002Z,58.80
2018-03-24T04:34:27.838Z,58.80
2018-03-24T04:36:57.272Z,51.80
2018-03-24T04:39:27.254Z,38.60
2018-03-24T04:41:56.500Z,47.20
2018-03-24T04:44:25.793Z,48.00
2018-03-24T04:46:55.268Z,44.80
2018-03-24T04:49:24.499Z,45.60
2018-03-24T04:51:53.699Z,47.20
2018-03-24T04:54:23.020Z,49.60
2018-03-24T04:56:52.176Z,48.20
2018-03-24T04:59:21.563Z,50.80
2018-03-24T05:01:51.003Z,53.00
2018-03-24T05:04:20.401Z,49.60
2018-03-24T05:06:50.627Z,51.40
2018-03-24T05:09:20.545Z,51.60
2018-03-24T05:11:50.907Z,50.80
2018-03-24T05:14:21.264Z,48.60
2018-03-24T05:16:51.062Z,47.00
2018-03-24T05:19:21.676Z,47.40
2018-03-24T05:21:51.055Z,49.00
2018-03-24T05:24:20.505Z,45.80
2018-03-24T05:26:50.936Z,45.80
2018-03-24T05:29:21.289Z,50.20
2018-03-24T05:31:51.388Z,50.00
2018-03-24T05:34:21.832Z,45.20
2018-03-24T05:36:52.508Z,48.00
2018-03-24T05:39:23.973Z,50.60
2018-03-24T05:41:54.748Z,48.40
2018-03-24T05:44:25.379Z,47.60
2018-03-24T05:46:55.685Z,51.20
2018-03-24T05:49:26.510Z,43.80
2018-03-24T05:51:56.873Z,48.20
2018-03-24T05:54:28.083Z,49.20
2018-03-24T05:56:57.362Z,47.60
2018-03-24T05:59:27.876Z,47.60
2018-03-24T06:01:58.583Z,47.60
2018-03-24T06:04:28.932Z,47.40
2018-03-24T06:06:59.266Z,46.60
2018-03-24T06:09:29.707Z,47.80
2018-03-24T06:12:00.247Z,40.20
2018-03-24T06:14:31.131Z,48.40
2018-03-24T06:17:01.726Z,45.40
2018-03-24T06:19:34.673Z,49.20
2018-03-24T06:22:06.107Z,48.80
2018-03-24T06:24:37.286Z,46.20
2018-03-24T06:27:08.912Z,45.00
2018-03-24T06:29:40.793Z,48.60
2018-03-24T06:32:12.800Z,47.80
2018-03-24T06:34:44.172Z,50.40
2018-03-24T06:37:19.430Z,45.60
2018-03-24T06:39:49.764Z,46.60
2018-03-24T06:42:20.943Z,47.60
2018-03-24T06:44:51.771Z,45.80
2018-03-24T06:47:22.068Z,41.80
2018-03-24T06:49:53.343Z,43.20
2018-03-24T06:52:24.047Z,44.60
2018-03-24T06:54:54.696Z,45.80
2018-03-24T06:57:24.835Z,46.00
2018-03-24T06:59:55.179Z,45.40
2018-03-24T07:02:25.434Z,47.00
2018-03-24T07:04:56.603Z,44.80
2018-03-24T07:07:26.843Z,47.00
2018-03-24T07:09:57.370Z,39.20
2018-03-24T07:12:28.088Z,46.60
2018-03-24T07:14:59.381Z,47.80
2018-03-24T07:17:30.285Z,43.40
2018-03-24T07:20:02.126Z,41.20
2018-03-24T07:22:34.776Z,44.40
2018-03-24T07:25:08.011Z,43.60
2018-03-24T07:27:40.209Z,45.00
2018-03-24T07:30:11.918Z,43.20
2018-03-24T07:32:43.751Z,36.40
2018-03-24T07:35:15.170Z,41.40
2018-03-24T07:37:46.604Z,45.20
2018-03-24T07:40:17.407Z,43.60
2018-03-24T07:42:48.605Z,45.40
2018-03-24T07:45:19.462Z,33.20
2018-03-24T07:47:50.778Z,44.40
2018-03-24T07:50:21.746Z,43.80
2018-03-24T07:52:52.957Z,45.20
2018-03-24T07:55:23.522Z,42.60
2018-03-24T07:57:53.749Z,37.60
2018-03-24T08:00:24.812Z,40.00
2018-03-24T08:02:55.348Z,45.00
2018-03-24T08:05:25.801Z,43.20
2018-03-24T08:07:56.397Z,44.40
2018-03-24T08:10:27.094Z,44.20
2018-03-24T08:12:57.824Z,42.40
2018-03-24T08:15:27.599Z,40.80
2018-03-24T08:17:57.934Z,41.00
2018-03-24T08:20:27.599Z,44.00
2018-03-24T08:22:57.401Z,43.00
2018-03-24T08:25:27.663Z,40.40
2018-03-24T08:27:57.100Z,42.80
2018-03-24T08:30:27.130Z,40.60
2018-03-24T08:32:57.263Z,36.60
2018-03-24T08:35:26.711Z,37.40
2018-03-24T08:37:58.361Z,43.20
2018-03-24T08:40:28.649Z,42.00
2018-03-24T08:42:58.987Z,36.60
2018-03-24T08:45:29.487Z,44.20
2018-03-24T08:47:59.639Z,42.60
2018-03-24T08:50:30.361Z,42.80
2018-03-24T08:53:01.499Z,36.60
2018-03-24T08:55:31.899Z,42.80
2018-03-24T08:58:02.495Z,44.20
2018-03-24T09:00:32.805Z,40.60
2018-03-24T09:03:03.346Z,39.40
2018-03-24T09:05:34.734Z,44.20
2018-03-24T09:08:05.712Z,40.80
2018-03-24T09:10:36.194Z,46.20
2018-03-24T09:13:06.295Z,40.20
2018-03-24T09:15:36.817Z,44.20
2018-03-24T09:18:07.982Z,41.00
2018-03-24T09:20:39.592Z,41.00
2018-03-24T09:23:10.575Z,40.60
2018-03-24T09:25:41.759Z,44.00
2018-03-24T09:28:12.742Z,41.40
2018-03-24T09:30:43.785Z,42.00
2018-03-24T09:33:13.951Z,42.00
2018-03-24T09:35:45.218Z,41.60
2018-03-24T09:38:16.597Z,42.40
2018-03-24T09:40:46.875Z,36.60
2018-03-24T09:43:17.328Z,38.80
2018-03-24T09:45:48.101Z,38.20
2018-03-24T09:48:18.694Z,37.20
2018-03-24T09:50:49.658Z,37.20
2018-03-24T09:53:20.892Z,35.20
2018-03-24T09:55:51.600Z,38.60
2018-03-24T09:58:22.423Z,37.60
2018-03-24T10:00:53.453Z,37.20
2018-03-24T10:03:24.425Z,36.20
2018-03-24T10:05:56.016Z,36.00
2018-03-24T10:08:26.892Z,34.80
2018-03-24T10:10:58.074Z,31.00
2018-03-24T10:13:29.946Z,29.00
2018-03-24T10:16:00.634Z,35.80
2018-03-24T10:18:31.551Z,37.20
2018-03-24T10:24:12.891Z,35.80
2018-03-24T10:26:43.575Z,32.60
2018-03-24T10:29:13.812Z,38.60
2018-03-24T10:31:43.885Z,36.20
2018-03-24T10:34:14.518Z,35.80
2018-03-24T10:36:44.993Z,35.80
2018-03-24T10:39:14.804Z,35.60
2018-03-24T10:41:44.341Z,38.20
2018-03-24T10:44:14.174Z,38.80
2018-03-24T10:46:43.765Z,38.80
2018-03-24T10:49:13.289Z,41.00
2018-03-24T10:51:42.733Z,38.80
2018-03-24T10:54:12.755Z,42.60
2018-03-24T10:56:42.283Z,39.00
2018-03-24T10:59:13.202Z,36.80
2018-03-24T11:01:42.805Z,36.60
2018-03-24T11:04:12.389Z,39.40
2018-03-24T11:06:41.757Z,40.60
2018-03-24T11:09:12.281Z,38.00
2018-03-24T11:11:41.646Z,41.00
2018-03-24T11:14:11.335Z,40.20
2018-03-24T11:16:40.989Z,44.80
2018-03-24T11:19:10.552Z,39.40
2018-03-24T11:21:40.038Z,39.60
2018-03-24T11:24:09.308Z,44.00
2018-03-24T11:26:38.582Z,45.00
2018-03-24T11:29:08.036Z,44.40
2018-03-24T11:31:37.301Z,55.00
2018-03-24T11:34:06.870Z,53.00
2018-03-24T11:36:36.224Z,46.20
2018-03-24T11:39:05.804Z,49.40
2018-03-24T11:41:36.359Z,46.80
2018-03-24T11:44:05.925Z,48.60
2018-03-24T11:46:35.600Z,48.20
2018-03-24T11:49:04.767Z,47.20
2018-03-24T11:51:34.274Z,42.80
2018-03-24T11:54:03.621Z,47.40
2018-03-24T11:56:33.461Z,53.40
2018-03-24T11:59:03.012Z,54.60
2018-03-24T12:01:32.435Z,52.00
2018-03-24T12:04:01.633Z,54.20
2018-03-24T12:06:31.205Z,51.60
2018-03-24T12:09:00.711Z,50.80
2018-03-24T12:11:30.208Z,56.60
2018-03-24T12:13:59.275Z,55.20
2018-03-24T12:16:28.916Z,51.80
2018-03-24T12:18:58.231Z,51.60
2018-03-24T12:21:27.863Z,50.20
2018-03-24T12:23:58.220Z,50.20
2018-03-24T12:26:28.199Z,52.40
2018-03-24T12:28:57.423Z,47.40
2018-03-24T12:31:26.934Z,52.00
2018-03-24T12:33:56.175Z,51.80
2018-03-24T12:36:25.431Z,49.00
2018-03-24T12:38:54.856Z,53.80
2018-03-24T12:41:24.107Z,51.20
2018-03-24T12:43:53.535Z,52.60
2018-03-24T12:46:23.209Z,55.60
2018-03-24T12:48:52.824Z,54.20
2018-03-24T12:51:22.181Z,53.80
2018-03-24T12:53:51.707Z,56.20
2018-03-24T12:56:21.227Z,56.80
2018-03-24T12:58:51.569Z,60.80
2018-03-24T13:01:20.795Z,60.20
2018-03-24T13:03:50.087Z,62.80
2018-03-24T13:06:19.553Z,62.80
2018-03-24T13:08:48.935Z,59.60
2018-03-24T13:11:18.586Z,62.60
2018-03-24T13:13:48.158Z,64.60
2018-03-24T13:16:17.541Z,70.40
2018-03-24T13:18:47.074Z,63.60
2018-03-24T13:21:16.362Z,75.00
2018-03-24T13:23:46.014Z,77.80
2018-03-24T13:26:14.958Z,75.20
2018-03-24T13:28:45.033Z,74.40
2018-03-24T13:31:17.202Z,72.80
2018-03-24T13:33:46.300Z,69.80
2018-03-24T13:36:16.058Z,70.60
2018-03-24T13:38:45.985Z,70.00
2018-03-24T13:41:15.341Z,68.80
2018-03-24T13:43:44.783Z,71.00
2018-03-24T13:46:14.244Z,70.80
2018-03-24T13:48:43.676Z,69.60
2018-03-24T13:51:13.036Z,70.60
2018-03-24T13:53:42.806Z,65.00
2018-03-24T13:56:12.075Z,70.80
2018-03-24T13:58:41.768Z,71.20
2018-03-24T14:01:11.200Z,60.20
2018-03-24T14:03:40.822Z,71.00
2018-03-24T14:06:10.399Z,71.80
2018-03-24T14:08:40.200Z,73.40
2018-03-24T14:11:09.302Z,76.00
2018-03-24T14:13:38.791Z,72.80
2018-03-24T14:16:08.224Z,76.00
2018-03-24T14:18:37.769Z,76.00
2018-03-24T14:21:07.293Z,82.60
2018-03-24T14:23:36.674Z,81.00
2018-03-24T14:26:06.294Z,86.00
2018-03-24T14:28:35.549Z,95.60
2018-03-24T14:31:05.586Z,93.80
2018-03-24T14:33:35.154Z,84.60
2018-03-24T14:36:05.788Z,79.60
2018-03-24T14:38:34.986Z,86.40
2018-03-24T14:41:04.478Z,92.60
2018-03-24T14:43:34.802Z,101.60
2018-03-24T14:46:04.244Z,108.40
2018-03-24T14:48:34.035Z,96.20
2018-03-24T14:51:03.424Z,88.40
2018-03-24T14:53:32.758Z,92.40
2018-03-24T14:56:02.022Z,85.40
2018-03-24T14:58:31.309Z,90.40
2018-03-24T15:01:00.436Z,97.20
2018-03-24T15:03:29.838Z,103.20
2018-03-24T15:05:59.422Z,96.20
2018-03-24T15:08:28.623Z,112.60
2018-03-24T15:10:58.143Z,105.00
2018-03-24T15:13:27.752Z,124.80
2018-03-24T15:15:57.177Z,123.40
2018-03-24T15:18:26.583Z,124.60
2018-03-24T15:20:56.330Z,130.80
2018-03-24T15:23:25.684Z,146.00
2018-03-24T15:25:55.240Z,131.80
2018-03-24T15:28:24.418Z,129.80
2018-03-24T15:31:05.540Z,135.00
2018-03-24T15:33:46.372Z,136.60
2018-03-24T15:36:27.308Z,137.60
2018-03-24T15:38:57.161Z,135.00
2018-03-24T15:41:26.429Z,128.60
2018-03-24T15:43:55.902Z,118.60
2018-03-24T15:46:25.230Z,116.40
2018-03-24T15:48:54.636Z,123.60
2018-03-24T15:51:24.037Z,119.60
2018-03-24T15:53:53.203Z,109.80
2018-03-24T15:56:22.635Z,112.60
2018-03-24T15:58:52.159Z,124.40
2018-03-24T16:01:22.013Z,127.20
2018-03-24T16:03:51.610Z,117.00
2018-03-24T16:06:21.296Z,110.20
2018-03-24T16:08:51.034Z,106.20
2018-03-24T16:11:20.586Z,109.00
2018-03-24T16:13:50.193Z,102.80
2018-03-24T16:16:19.504Z,105.20
2018-03-24T16:18:49.280Z,99.80
2018-03-24T16:21:18.475Z,99.40
2018-03-24T16:23:48.054Z,92.80
2018-03-24T16:26:18.224Z,104.60
2018-03-24T16:28:47.843Z,98.20
2018-03-24T16:31:17.394Z,107.20
2018-03-24T16:33:47.015Z,104.40
2018-03-24T16:36:17.051Z,113.80
2018-03-24T16:38:46.681Z,102.60
2018-03-24T16:41:16.368Z,113.80
2018-03-24T16:43:45.756Z,103.20
2018-03-24T16:46:14.947Z,109.40
2018-03-24T16:48:44.771Z,104.80
2018-03-24T16:51:14.269Z,114.40
2018-03-24T16:53:44.134Z,122.60
2018-03-24T16:56:13.976Z,114.00
2018-03-24T16:58:43.514Z,106.60
2018-03-24T17:01:12.994Z,112.00
2018-03-24T17:03:42.294Z,124.00
2018-03-24T17:06:12.246Z,136.60
2018-03-24T17:08:41.312Z,140.20
2018-03-24T17:11:11.132Z,126.00
2018-03-24T17:13:40.644Z,141.00
2018-03-24T17:16:15.264Z,139.00
2018-03-24T17:18:44.864Z,138.40
2018-03-24T17:21:14.215Z,129.60
2018-03-24T17:23:43.891Z,134.60
2018-03-24T17:26:13.294Z,131.20
2018-03-24T17:28:43.261Z,134.60
2018-03-24T17:31:12.507Z,132.80
2018-03-24T17:33:41.708Z,138.20
2018-03-24T17:36:10.836Z,129.80
2018-03-24T17:38:40.786Z,130.40
2018-03-24T17:41:10.465Z,134.00
2018-03-24T17:43:40.039Z,119.00
2018-03-24T17:46:09.444Z,127.00
2018-03-24T17:48:38.834Z,125.80
2018-03-24T17:51:08.615Z,111.20
2018-03-24T17:53:38.062Z,119.20
2018-03-24T17:56:07.707Z,115.80
2018-03-24T17:58:37.037Z,113.40
2018-03-24T18:01:06.720Z,104.20
2018-03-24T18:03:41.240Z,118.40
2018-03-24T18:06:10.830Z,111.00
2018-03-24T18:08:39.997Z,103.20
2018-03-24T18:11:09.500Z,109.60
2018-03-24T18:13:38.924Z,104.40
2018-03-24T18:16:08.572Z,104.60
2018-03-24T18:18:37.956Z,110.40
2018-03-24T18:21:07.089Z,113.40
2018-03-24T18:23:36.635Z,113.80
2018-03-24T18:26:06.043Z,106.40
2018-03-24T18:28:35.544Z,112.00
2018-03-24T18:31:04.934Z,105.20
2018-03-24T18:33:34.426Z,110.40
2018-03-24T18:36:03.908Z,117.60
2018-03-24T18:38:33.354Z,115.40
2018-03-24T18:41:02.869Z,122.00
2018-03-24T18:43:32.341Z,125.60
2018-03-24T18:46:01.743Z,118.80
2018-03-24T18:48:31.079Z,113.60
2018-03-24T18:51:00.552Z,115.60
2018-03-24T18:53:30.275Z,114.00
2018-03-24T18:55:59.786Z,112.20
2018-03-24T18:58:29.398Z,113.80
2018-03-24T19:00:58.612Z,120.20
2018-03-24T19:03:27.737Z,109.40
2018-03-24T19:05:57.288Z,110.00
2018-03-24T19:08:27.959Z,96.00
2018-03-24T19:10:57.692Z,92.40
2018-03-24T19:13:26.878Z,106.60
2018-03-24T19:15:56.436Z,111.40
2018-03-24T19:18:25.954Z,104.60
2018-03-24T19:20:55.284Z,118.40
2018-03-24T19:23:24.532Z,111.60
2018-03-24T19:25:53.830Z,98.20
2018-03-24T19:28:23.682Z,104.80
2018-03-24T19:30:53.068Z,105.60
2018-03-24T19:33:22.271Z,114.60
2018-03-24T19:35:51.838Z,105.40
2018-03-24T19:38:21.312Z,102.20
2018-03-24T19:40:50.751Z,105.40
2018-03-24T19:43:20.611Z,106.80
2018-03-24T19:45:50.054Z,117.00
2018-03-24T19:48:19.522Z,107.20
2018-03-24T19:50:49.062Z,110.00
2018-03-24T19:53:18.444Z,102.80
2018-03-24T19:55:47.792Z,104.00
2018-03-24T19:58:17.147Z,105.60
2018-03-24T20:00:46.325Z,95.20
2018-03-24T20:03:15.851Z,105.80
2018-03-24T20:05:44.992Z,92.80
2018-03-24T20:08:14.579Z,104.20
2018-03-24T20:10:43.913Z,106.20
2018-03-24T20:13:13.295Z,108.20
2018-03-24T20:15:42.965Z,108.40
2018-03-24T20:18:12.294Z,119.00
2018-03-24T20:20:41.683Z,122.80
2018-03-24T20:23:10.987Z,127.00
2018-03-24T20:25:40.352Z,139.60
2018-03-24T20:28:09.928Z,134.60
2018-03-24T20:30:39.834Z,133.60
2018-03-24T20:33:09.331Z,148.20
2018-03-24T20:35:38.870Z,139.60
2018-03-24T20:38:08.397Z,137.20
2018-03-24T20:40:37.799Z,130.60
2018-03-24T20:43:07.146Z,127.80
2018-03-24T20:45:36.269Z,132.40
2018-03-24T20:48:05.770Z,131.20
2018-03-24T20:50:35.164Z,123.60
2018-03-24T20:53:04.496Z,124.40
2018-03-24T20:55:33.931Z,132.40
2018-03-24T20:58:03.282Z,127.80
2018-03-24T21:00:32.651Z,135.40
2018-03-24T21:03:03.356Z,125.00
2018-03-24T21:05:32.684Z,142.80
2018-03-24T21:08:01.832Z,139.00
2018-03-24T21:10:31.364Z,136.40
2018-03-24T21:13:00.738Z,132.80
2018-03-24T21:15:29.950Z,128.40
2018-03-24T21:17:59.322Z,133.80
2018-03-24T21:20:28.600Z,135.00
2018-03-24T21:22:58.104Z,125.60
2018-03-24T21:25:27.383Z,128.60
2018-03-24T21:27:56.775Z,126.80
2018-03-24T21:30:25.924Z,121.60
2018-03-24T21:32:55.359Z,133.20
2018-03-24T21:35:24.539Z,125.60
2018-03-24T21:37:54.118Z,128.60
2018-03-24T21:40:23.471Z,131.00
2018-03-24T21:42:52.863Z,122.60
2018-03-24T21:45:22.212Z,114.80
2018-03-24T21:47:51.692Z,126.00
2018-03-24T21:50:20.914Z,120.60
2018-03-24T21:52:50.664Z,122.20
2018-03-24T21:55:20.188Z,115.60
2018-03-24T21:57:49.641Z,119.60
2018-03-24T22:00:19.049Z,121.40
2018-03-24T22:02:48.425Z,118.00
2018-03-24T22:05:17.838Z,132.20
2018-03-24T22:07:47.368Z,119.40
2018-03-24T22:10:16.642Z,122.40
2018-03-24T22:12:46.109Z,128.80
2018-03-24T22:15:15.574Z,125.60
2018-03-24T22:17:45.375Z,117.80
2018-03-24T22:20:14.634Z,108.80
2018-03-24T22:22:43.955Z,120.20
2018-03-24T22:25:13.068Z,112.40
2018-03-24T22:27:42.645Z,116.00
2018-03-24T22:30:12.179Z,114.80
2018-03-24T22:32:41.714Z,104.40
2018-03-24T22:35:11.018Z,110.20
2018-03-24T22:37:40.487Z,112.60
2018-03-24T22:40:10.278Z,116.40
2018-03-24T22:42:39.540Z,113.00
2018-03-24T22:45:09.098Z,114.60
2018-03-24T22:47:38.428Z,109.60
2018-03-24T22:50:08.285Z,114.20
2018-03-24T22:52:37.748Z,114.80
2018-03-24T22:55:07.171Z,109.80
2018-03-24T22:57:36.311Z,117.80
2018-03-24T23:00:06.375Z,114.60
2018-03-24T23:02:35.554Z,118.00
2018-03-24T23:05:05.158Z,113.20
2018-03-24T23:07:34.462Z,122.60
2018-03-24T23:10:03.747Z,122.40
2018-03-24T23:12:33.099Z,116.40
2018-03-24T23:15:02.492Z,133.60
2018-03-24T23:17:32.003Z,143.20
2018-03-24T23:20:01.252Z,135.60
2018-03-24T23:22:30.717Z,137.80
2018-03-24T23:25:00.215Z,141.60
2018-03-24T23:27:29.816Z,142.60
2018-03-24T23:29:59.319Z,148.20
2018-03-24T23:32:28.723Z,151.60
2018-03-24T23:34:58.194Z,140.20
2018-03-24T23:37:28.594Z,151.60
2018-03-24T23:39:57.997Z,150.80
2018-03-24T23:42:27.016Z,160.80
2018-03-24T23:44:56.607Z,151.80
2018-03-24T23:47:25.858Z,142.40
2018-03-24T23:49:55.127Z,142.80
2018-03-24T23:52:24.585Z,145.60
2018-03-24T23:54:53.980Z,139.20
2018-03-24T23:57:23.458Z,149.40
2018-03-24T23:59:53.042Z,136.80
